Aeroporto :
LOGIN :

Iscrizione | Disclaimer

   EN    FR    IT 

 










Sommario :    VFR   VFR Marginale   IFR   IFR Intensivo   IFR Molto Intensivo
Visibilità : 
Base nubi : 
>= 8 km
>= 3000ft
5 / 8 km
1000 / 3000 ft
1500m / 5 km
500 / 1000 ft
800 / 1500m
200 / 500 ft
< 800m
< 200 ft
Simboli :   Temporali  Nebbia  Neve Forte  Precipitazioni Forti  Vento > 20 kt
SIGMETs :   Varie  Temporali  Ghiacco  Turbolenza  Onda orograficha  Ceneri Vulcaniche






- Altitudine del aeroporto : 33 ft
- Codice IATA : MHZ


EGUN - RAF Mildenhall

ULTIMO METAR :
  • 231656Z 30014KT 9999 FEW210 08/M02 A3008 RMK SLP190 WND DATA ESTMD ALTSG ESTMD RVRNO

METARs OBSOLETI :
  • 231556Z 29017G23KT 9999 CLR 09/M01 A3003 RMK AO2 PK WND 28026/41 SLP173 WND DATA ESTMD ALTSG ESTMD T00871014
  • 231456Z 30020G28KT 9999 FEW040 10/00 A3001 RMK SLP161 WND DATA ESTMD ALTSG ESTMD RVRNO
  • 231356Z 31018G28KT 9999 FEW026 SCT037 10/03 A2997 RMK SLP148 WND DATA ESTMD ALTSG ESTMD RVRNO

TAF TAF EGUN
Valido dal 23 a 12 ore il 24 a 18 ore UTC


231201Z 2312/2418 29025G35KT 9000 -SHRA SCT030 510005 QNH2976INS
BECMG 2314/2315 25010G20KT 9999 NSW SCT050 QNH3002INS
BECMG 2318/2319 28012KT 9999 SCT120 QNH3010INS
BECMG 2401/2402 18006KT 8000 -SHRA BKN015 QNH2981INS
BECMG 2406/2407 21015G20KT 8000 -SHRA BKN010 QNH2968INS
BECMG 2410/2411 24025G35KT 8000 -SHRA BKN010 510005 QNH2959INS
BECMG 2413/2414 26030G40KT 9999 NSW BKN015 520005 QNH2953INS TX14/2312Z TN05/2404Z



MetMap, La meteo Aeronautica in un colpo d'occhio ! - Copyright ORBIFLY Dicembre 2007 - Disclaimer

ORBIFLY MET'MAP TEAM :

Programmazione e sviluppo : Alexandra Zaïnal
Concezione : Baudouin d'Aumeries
Aiuto per la programmazione : Marc-Olivier Méhu
Supporto tecnico e logistico : Manuel Goepfert
Aiuto per la traduzione : Arnaldo La Scala

Contatto : metmap@orbifly.com




FONTI E CREDITI :

   NOAA